Terminal Aerodrome Forecast
Issued by NWS

Current Version | Previous Version | Text Only | Print | Product List | Glossary Off
Versions: 1 2 3 4 5 6 7 8 9 10 11 12 13 14 15 16 17 18 19 20 21 22

008
FTUS41 KILN 192327
TAFLUK
TAF
KLUK 192327Z 2000/2024 00000KT P6SM VCSH BKN040
     FM200200 00000KT P6SM SCT250
     FM200400 00000KT 4SM BR SCT250
     FM200700 00000KT 2SM BR SCT015
     FM200900 00000KT 1SM BR BKN015
     FM201400 VRB03KT P6SM BKN015
     FM201600 23005KT P6SM SCT050=

USA.gov is the U.S. government's official web portal to all federal, state and local government web resources and services.